Leicester, Massachusetts
Current Conditions -  °F | °C
As of 11:54 AM on Friday 19 Dec 2014 (Local Time) from KORH Reporting Station
Overcast Overcast  
Wind Chill: 20°   Ceiling: 2200
Heat Index: 30°   Visibility: 10mi
Dew Point: 21°   Wind: 13mph
Humidity: 69%   Direction: 320°NW
Pressure: 29.91"   Gusts: NA
Location:  42.25°N, 71.91°W
Report Text: KORH 191654Z 32011KT 10SM OVC022 M01/M06 A2991 RMK AO2 SLP141 T10111061
Loading
Personal Weather Stations






























Interactive Weather Map New forecast layout! Learn more

10-Day Weather Forecast

Advertisements
Track Severe Weather on mobile